Gunnison Bend Reservoir




Date Hourly Average Reservoir Capacity (AF) Canal Flow (cfs) Battery Voltage (V) Reservoir Height (ft) Gate Height 1 (ft) Gate Height 2 (ft)
04/01/2017 2,248 6.37 13.26 9.04 0.17 0.25
04/02/2017 2,248 6.38 13.43 9.04 0.17 0.25
04/03/2017 2,259 6.39 13.44 9.06 0.17 0.25
04/04/2017 2,254 5.96 13.45 9.05 0.15 0.23
04/05/2017 2,243 5.63 13.52 9.03 0.13 0.22
04/06/2017 2,232 5.63 13.41 9.01 0.13 0.22
04/07/2017 2,221 5.62 13.30 8.99 0.13 0.22
04/08/2017 2,192 5.54 13.29 8.93 0.13 0.22
04/09/2017 2,192 5.56 13.34 8.93 0.13 0.22
04/10/2017 2,207 4.42 13.33 8.96 0.13 0.22
04/11/2017 2,212 3.62 13.47 8.97 0.13 0.22
04/12/2017 2,207 3.60 13.46 8.96 0.13 0.22
04/13/2017 2,207 3.65 13.39 8.96 0.13 0.22
04/14/2017 2,173 3.64 13.40 8.89 0.13 0.22
04/15/2017 2,187 3.77 13.41 8.92 0.13 0.22
04/16/2017 2,183 3.78 13.44 8.91 0.13 0.22
04/17/2017 2,178 1.81 13.37 8.90 0.04 0.08
04/18/2017 2,287 0.78 13.29 9.11 0.00 0.02
04/19/2017 2,557 0.70 13.28 9.60 0.00 0.02
04/20/2017 2,851 17.19 13.38 10.12 0.32 0.02
04/21/2017 2,912 28.54 13.43 10.22 0.54 0.02
04/22/2017 2,888 43.71 13.51 10.18 0.81 0.02
04/23/2017 2,894 55.89 13.47 10.19 1.00 0.02
04/24/2017 2,955 57.99 13.41 10.29 1.05 0.02
04/25/2017 3,004 57.84 13.44 10.37 1.03 0.02
04/26/2017 3,022 58.33 13.50 10.40 1.04 0.02
04/27/2017 3,016 60.70 13.44 10.39 1.09 0.02
04/28/2017 2,973 66.58 13.58 10.32 1.23 0.02
04/29/2017 2,912 77.55 13.62 10.22 1.50 0.02
04/30/2017 2,955 78.00 13.55 10.29 1.48 0.02
Average 22.84
Maximum 78.00
Minimum 0.70
Total Volume (AF) 1,358.69